Time;durP1;ratioP1;P1;durP2;ratioP2;P2;SDS_P1;SDS_P2;PMS_P1;PMS_P2;Temp;Humidity;BMP_temperature;BMP_pressure;BME280_temperature;BME280_humidity;BME280_pressure;Samples;Min_cycle;Max_cycle;Signal;HPM_P1;HPM_P2
2022/11/28 00:00:58;;;;;;;18.47;11.17;;;;;;;5.69;99.93;101687.91;4983790;28;20207;-71
2022/11/28 00:03:24;;;;;;;19.20;11.27;;;;;;;5.68;99.70;101676.00;4985069;28;20211;-71
2022/11/28 00:05:50;;;;;;;16.73;10.43;;;;;;;5.67;100.00;101685.28;4983057;28;20566;-71
2022/11/28 00:08:16;;;;;;;18.17;10.30;;;;;;;5.67;99.63;101671.72;4987357;28;20202;-71
2022/11/28 00:10:41;;;;;;;19.53;10.40;;;;;;;5.66;99.61;101667.44;4982398;28;20212;-71
2022/11/28 00:13:07;;;;;;;17.90;10.60;;;;;;;5.67;100.00;101669.19;4982874;28;20216;-71
2022/11/28 00:15:32;;;;;;;19.40;11.57;;;;;;;5.67;99.96;101666.63;4979218;28;20255;-71
2022/11/28 00:17:57;;;;;;;17.23;10.73;;;;;;;5.67;99.46;101667.50;4982039;28;20301;-72
2022/11/28 00:20:23;;;;;;;15.47;10.00;;;;;;;5.67;98.74;101671.72;4977060;28;20307;-71
2022/11/28 00:22:49;;;;;;;14.50;10.53;;;;;;;5.67;98.89;101657.31;4973626;28;20266;-72
2022/11/28 00:25:14;;;;;;;15.33;10.10;;;;;;;5.67;99.92;101664.94;4973454;28;20654;-72
2022/11/28 00:27:39;;;;;;;15.30;9.67;;;;;;;5.68;99.20;101665.84;4975627;28;20192;-71
2022/11/28 00:30:06;;;;;;;15.03;9.60;;;;;;;5.67;99.38;101662.41;4975844;28;20216;-72
2022/11/28 00:32:31;;;;;;;14.93;9.60;;;;;;;5.67;99.21;101659.00;4977431;28;20204;-72
2022/11/28 00:34:57;;;;;;;14.70;9.80;;;;;;;5.66;99.31;101663.22;4976182;28;20192;-71
2022/11/28 00:37:22;;;;;;;15.13;9.40;;;;;;;5.68;98.63;101656.56;4978963;28;20191;-72
2022/11/28 00:39:48;;;;;;;13.30;9.27;;;;;;;5.69;99.39;101653.22;4980585;28;20627;-72
2022/11/28 00:42:14;;;;;;;18.37;9.83;;;;;;;5.69;99.08;101654.88;4982169;28;20619;-72
2022/11/28 00:44:40;;;;;;;14.70;9.97;;;;;;;5.68;98.84;101654.03;4982492;28;20189;-72
2022/11/28 00:47:05;;;;;;;14.17;9.07;;;;;;;5.66;98.30;101642.88;4982921;28;20304;-71
2022/11/28 00:49:31;;;;;;;15.17;9.83;;;;;;;5.68;99.19;101656.56;4985077;28;20345;-72
2022/11/28 00:51:56;;;;;;;16.40;9.83;;;;;;;5.69;98.95;101652.31;4985002;28;20219;-72
2022/11/28 00:54:21;;;;;;;16.40;10.30;;;;;;;5.69;98.42;101649.78;4985338;28;20275;-72
2022/11/28 00:56:47;;;;;;;16.43;9.70;;;;;;;5.69;98.36;101637.09;4986794;28;20299;-72
2022/11/28 00:59:12;;;;;;;17.03;10.00;;;;;;;5.69;98.95;101632.00;4985670;28;20285;-72
2022/11/28 01:01:41;;;;;;;14.03;9.57;;;;;;;5.69;97.96;101610.03;4978191;28;20625;-72
2022/11/28 01:04:08;;;;;;;16.63;9.43;;;;;;;5.69;98.10;101604.06;4981459;28;20191;-72
2022/11/28 01:06:44;;;;;;;14.90;9.27;;;;;;;5.67;98.75;101624.31;4980212;28;20220;-72
2022/11/28 01:09:21;;;;;;;12.53;9.00;;;;;;;5.66;98.79;101614.94;4976453;28;20258;-72
2022/11/28 01:11:48;;;;;;;13.40;9.17;;;;;;;5.65;98.75;101613.22;4966510;28;20211;-72
2022/11/28 01:14:14;;;;;;;16.23;9.33;;;;;;;5.67;98.35;101611.59;4975825;28;20195;-72
2022/11/28 01:16:39;;;;;;;13.97;9.33;;;;;;;5.66;98.54;101603.94;4977873;28;20192;-72
2022/11/28 01:19:05;;;;;;;13.00;8.80;;;;;;;5.66;98.04;101601.38;4968870;28;20188;-71
2022/11/28 01:21:31;;;;;;;13.97;8.97;;;;;;;5.66;97.80;101594.63;4980872;28;20282;-72
2022/11/28 01:23:56;;;;;;;14.17;10.07;;;;;;;5.65;98.38;101581.84;4980198;28;20326;-72
2022/11/28 01:26:25;;;;;;;14.20;9.57;;;;;;;5.64;98.22;101588.59;4980071;28;20636;-72
2022/11/28 01:28:50;;;;;;;15.07;9.57;;;;;;;5.65;98.12;101590.34;4980492;28;20673;-72
2022/11/28 01:31:19;;;;;;;12.87;8.80;;;;;;;5.66;97.96;101596.31;4980837;28;20212;-72
2022/11/28 01:33:45;;;;;;;14.90;8.90;;;;;;;5.66;97.83;101579.38;4979801;28;20202;-72
2022/11/28 01:36:11;;;;;;;15.73;8.70;;;;;;;5.66;97.38;101578.53;4980787;28;20192;-72
2022/11/28 01:38:37;;;;;;;14.07;9.50;;;;;;;5.68;97.04;101582.00;4980295;28;20207;-72
2022/11/28 01:41:04;;;;;;;16.70;8.87;;;;;;;5.67;96.99;101570.97;4994946;28;20212;-71
2022/11/28 01:43:30;;;;;;;12.07;8.07;;;;;;;5.68;97.18;101572.72;4980774;28;20219;-70
2022/11/28 01:45:55;;;;;;;13.07;9.67;;;;;;;5.67;97.70;101573.50;4979248;28;20192;-71
2022/11/28 01:48:31;;;;;;;11.80;8.87;;;;;;;5.68;97.67;101565.09;4981745;28;20214;-70
2022/11/28 01:51:05;;;;;;;17.23;9.27;;;;;;;5.68;97.71;101534.63;4979947;28;20306;-73
2022/11/28 01:53:35;;;;;;;13.60;8.57;;;;;;;5.70;97.97;101557.53;4979935;28;20551;-72
2022/11/28 01:56:19;;;;;;;14.60;8.60;;;;;;;5.70;97.02;101549.91;4979265;28;20221;-72
2022/11/28 01:58:49;;;;;;;11.73;8.53;;;;;;;5.68;98.13;101541.34;4976349;28;20593;-71
2022/11/28 02:01:16;;;;;;;13.53;8.80;;;;;;;5.68;97.66;101542.25;4983897;28;20265;-72
2022/11/28 02:03:49;;;;;;;11.43;8.80;;;;;;;5.66;98.00;101536.19;4977348;28;20211;-71
2022/11/28 02:06:19;;;;;;;15.23;8.60;;;;;;;5.68;97.87;101531.19;4979551;28;20274;-71
2022/11/28 02:08:44;;;;;;;13.90;8.33;;;;;;;5.66;97.84;101523.50;4980776;28;20196;-71
2022/11/28 02:11:34;;;;;;;14.83;9.33;;;;;;;5.66;98.51;101512.47;4978244;28;20744;-72
2022/11/28 02:14:10;;;;;;;16.23;9.30;;;;;;;5.65;98.77;101501.44;4977631;28;20208;-72
2022/11/28 02:17:04;;;;;;;17.07;9.17;;;;;;;5.65;98.51;101492.94;4979240;28;20237;-72
2022/11/28 02:19:47;;;;;;;12.87;9.17;;;;;;;5.61;98.45;101494.47;4979425;23;20700;-73
2022/11/28 02:22:18;;;;;;;14.73;8.43;;;;;;;5.61;98.89;101483.44;4984563;28;20315;-73
2022/11/28 02:25:04;;;;;;;17.63;8.87;;;;;;;5.59;98.65;101469.78;4989671;28;20278;-73
2022/11/28 02:28:03;;;;;;;15.77;9.60;;;;;;;5.57;99.11;101472.25;4985158;28;20262;-73
2022/11/28 02:30:41;;;;;;;11.77;9.00;;;;;;;5.56;98.34;101457.81;4986938;28;20210;-73
2022/11/28 02:33:10;;;;;;;14.33;9.17;;;;;;;5.55;98.06;101460.28;4987953;28;20183;-73
2022/11/28 02:36:01;;;;;;;15.63;9.33;;;;;;;5.54;98.22;101444.19;4989295;28;20591;-73
2022/11/28 02:38:42;;;;;;;11.63;8.67;;;;;;;5.55;98.17;101445.91;4986055;28;20202;-73
2022/11/28 02:41:25;;;;;;;16.97;9.03;;;;;;;5.56;97.53;101436.59;4988597;28;20294;-73
2022/11/28 02:43:59;;;;;;;14.90;8.57;;;;;;;5.54;97.71;101421.31;4988961;28;20184;-73
2022/11/28 02:46:46;;;;;;;12.70;9.07;;;;;;;5.55;97.53;101414.56;4987919;28;20188;-73
2022/11/28 02:49:22;;;;;;;14.00;8.50;;;;;;;5.54;97.17;101416.25;4991894;28;20719;-73
2022/11/28 02:52:04;;;;;;;16.90;8.57;;;;;;;5.53;96.91;101408.53;4993167;28;20659;-73
2022/11/28 02:54:30;;;;;;;12.70;7.93;;;;;;;5.53;96.51;101409.41;4988113;28;20184;-72
2022/11/28 02:56:56;;;;;;;13.00;8.67;;;;;;;5.55;95.81;101406.94;4990301;28;20222;-73
2022/11/28 02:59:32;;;;;;;17.63;9.00;;;;;;;5.56;95.42;101408.66;4990918;28;20215;-73
2022/11/28 03:02:00;;;;;;;14.23;8.60;;;;;;;5.56;95.15;101406.13;4988297;28;20672;-73
2022/11/28 03:04:55;;;;;;;12.47;8.70;;;;;;;5.56;95.08;101408.66;4994423;28;20180;-72
2022/11/28 03:07:38;;;;;;;13.83;8.20;;;;;;;5.57;94.77;101407.91;4993412;28;20192;-73
2022/11/28 03:10:27;;;;;;;14.33;8.53;;;;;;;5.57;94.77;101431.59;4987800;28;20760;-73
2022/11/28 03:13:06;;;;;;;13.13;8.67;;;;;;;5.55;94.96;101422.16;4987355;28;20245;-73
2022/11/28 03:16:09;;;;;;;15.53;9.27;;;;;;;5.53;94.98;101422.09;4975267;28;20559;-73
2022/11/28 03:18:44;;;;;;;15.73;9.13;;;;;;;5.53;95.34;101432.25;4989768;28;20728;-73
2022/11/28 03:21:29;;;;;;;11.03;8.53;;;;;;;5.52;94.92;101422.03;4992117;28;20234;-73
2022/11/28 03:24:00;;;;;;;13.67;9.43;;;;;;;5.51;95.11;101418.63;4984352;28;20184;-73
2022/11/28 03:26:29;;;;;;;13.27;9.03;;;;;;;5.50;95.18;101421.97;4991097;28;20199;-73
2022/11/28 03:29:03;;;;;;;14.00;9.40;;;;;;;5.50;95.14;101411.81;4973648;28;20704;-74
2022/11/28 03:31:44;;;;;;;16.57;8.77;;;;;;;5.50;95.37;101408.38;4989678;28;20188;-74
2022/11/28 03:34:15;;;;;;;13.63;8.17;;;;;;;5.50;95.25;101394.03;4990788;28;20195;-73
2022/11/28 03:36:50;;;;;;;12.47;8.17;;;;;;;5.49;95.17;101401.56;4988064;28;20188;-73
2022/11/28 03:39:23;;;;;;;12.80;9.17;;;;;;;5.47;95.26;101413.31;4985748;28;20580;-73
2022/11/28 03:42:13;;;;;;;14.13;8.63;;;;;;;5.47;95.24;101404.03;4990402;28;20212;-73
2022/11/28 03:44:51;;;;;;;11.87;8.37;;;;;;;5.48;95.21;101408.31;4985809;28;20619;-73
2022/11/28 03:47:17;;;;;;;17.20;8.53;;;;;;;5.48;94.80;101405.75;4989263;28;20207;-73
2022/11/28 03:49:49;;;;;;;14.73;8.80;;;;;;;5.46;94.25;101409.03;4991927;28;20266;-73
2022/11/28 03:52:22;;;;;;;11.33;7.73;;;;;;;5.47;94.80;101400.59;4991762;28;20551;-73
2022/11/28 03:54:54;;;;;;;13.57;8.07;;;;;;;5.47;94.35;101398.06;4990446;28;20199;-73
2022/11/28 03:57:31;;;;;;;12.83;8.70;;;;;;;5.46;94.46;101409.91;4991825;28;20191;-73
2022/11/28 04:00:01;;;;;;;14.40;8.50;;;;;;;5.46;94.33;101407.38;4990861;28;20295;-73
2022/11/28 04:02:37;;;;;;;12.63;9.10;;;;;;;5.47;94.83;101403.16;5001492;28;20247;-73
2022/11/28 04:05:21;;;;;;;11.23;8.13;;;;;;;5.47;94.35;101372.69;4988901;28;20627;-73
2022/11/28 04:08:00;;;;;;;14.20;8.23;;;;;;;5.47;94.86;101382.84;4991389;28;20198;-73
2022/11/28 04:10:38;;;;;;;12.63;7.83;;;;;;;5.47;94.64;101377.75;4989519;28;20219;-73
2022/11/28 04:13:17;;;;;;;12.53;8.47;;;;;;;5.45;94.65;101395.47;4990725;28;20227;-73
2022/11/28 04:15:42;;;;;;;12.87;8.10;;;;;;;5.48;94.10;101402.38;4988144;28;20246;-73
2022/11/28 04:18:40;;;;;;;13.50;8.60;;;;;;;5.45;93.77;101422.53;4988886;28;20200;-73
2022/11/28 04:21:21;;;;;;;13.83;9.40;;;;;;;5.43;94.01;101425.00;4997250;28;20227;-73
2022/11/28 04:23:48;;;;;;;11.80;8.50;;;;;;;5.43;94.30;101432.59;4988102;28;20223;-73
2022/11/28 04:26:19;;;;;;;12.97;9.07;;;;;;;5.45;94.17;101427.59;4986522;28;20645;-73
2022/11/28 04:28:47;;;;;;;12.80;8.43;;;;;;;5.45;94.13;101420.88;4987296;28;20636;-73
2022/11/28 04:31:16;;;;;;;12.80;8.70;;;;;;;5.44;94.05;101418.25;4991101;28;20219;-74
2022/11/28 04:33:46;;;;;;;14.07;8.60;;;;;;;5.43;94.00;101407.22;4987894;28;20275;-73
2022/11/28 04:36:15;;;;;;;12.63;8.20;;;;;;;5.43;93.16;101419.06;4990445;28;20289;-73
2022/11/28 04:38:43;;;;;;;14.37;9.10;;;;;;;5.43;93.79;101417.38;4986814;28;20812;-73
2022/11/28 04:41:15;;;;;;;13.43;8.33;;;;;;;5.43;93.54;101413.97;4989477;28;20852;-73
2022/11/28 04:43:46;;;;;;;13.33;8.60;;;;;;;5.43;93.96;101406.38;4987566;28;20219;-72
2022/11/28 04:46:19;;;;;;;12.27;8.27;;;;;;;5.43;92.99;101401.28;4990856;28;20188;-73
2022/11/28 04:48:44;;;;;;;12.90;8.33;;;;;;;5.42;92.65;101396.97;4990913;28;20660;-72
2022/11/28 04:51:31;;;;;;;13.13;8.23;;;;;;;5.42;92.90;101384.28;4991043;28;20258;-73
2022/11/28 04:54:10;;;;;;;14.23;8.47;;;;;;;5.42;92.28;101376.66;4989631;28;20191;-72
2022/11/28 04:57:24;;;;;;;14.00;8.83;;;;;;;5.44;92.74;101380.16;4989843;28;20214;-73
2022/11/28 04:59:50;;;;;;;13.43;8.60;;;;;;;5.42;92.40;101380.09;4992925;28;20630;-73
2022/11/28 05:02:18;;;;;;;10.70;7.63;;;;;;;5.43;92.35;101373.34;4990394;28;20750;-73
2022/11/28 05:04:43;;;;;;;10.60;7.83;;;;;;;5.44;91.93;101375.94;4990202;28;20195;-73
2022/11/28 05:07:09;;;;;;;15.87;8.20;;;;;;;5.43;91.75;101374.19;4986286;28;20226;-73
2022/11/28 05:09:35;;;;;;;11.77;8.30;;;;;;;5.43;92.53;101371.66;4989438;28;20208;-73
2022/11/28 05:12:01;;;;;;;13.67;9.03;;;;;;;5.45;91.76;101366.66;4990416;28;20524;-73
2022/11/28 05:14:27;;;;;;;13.13;8.83;;;;;;;5.43;91.89;101369.13;4990231;28;20219;-73
2022/11/28 05:16:52;;;;;;;13.57;8.60;;;;;;;5.42;91.62;101369.94;4989313;28;20195;-73
2022/11/28 05:19:18;;;;;;;13.50;8.47;;;;;;;5.41;92.12;101380.88;4990543;28;20230;-73
2022/11/28 05:21:43;;;;;;;13.20;8.30;;;;;;;5.42;92.66;101395.31;4990475;28;20195;-74
2022/11/28 05:24:09;;;;;;;12.30;8.57;;;;;;;5.39;92.12;101425.63;4989644;28;20569;-73
2022/11/28 05:26:36;;;;;;;15.73;9.43;;;;;;;5.36;92.79;101450.88;4986683;28;20192;-73
2022/11/28 05:29:03;;;;;;;12.77;9.10;;;;;;;5.34;92.93;101442.31;4989064;28;20202;-73
2022/11/28 05:31:29;;;;;;;18.17;9.50;;;;;;;5.34;92.91;101449.91;4987563;28;20720;-72
2022/11/28 05:33:55;;;;;;;13.23;8.90;;;;;;;5.30;93.37;101453.09;4990422;28;20184;-73
2022/11/28 05:36:21;;;;;;;11.77;8.83;;;;;;;5.29;93.56;101466.59;4986714;28;20596;-73
2022/11/28 05:38:47;;;;;;;16.67;10.03;;;;;;;5.30;94.03;101465.78;4990415;28;20262;-73
2022/11/28 05:41:24;;;;;;;15.83;9.83;;;;;;;5.29;93.81;101468.28;4989714;28;20187;-73
2022/11/28 05:43:50;;;;;;;14.00;9.33;;;;;;;5.32;94.23;101476.03;4989102;28;20298;-73
2022/11/28 05:46:16;;;;;;;13.43;10.67;;;;;;;5.30;94.25;101475.09;4988899;28;20182;-73
2022/11/28 05:48:41;;;;;;;12.93;8.43;;;;;;;5.30;94.19;101473.41;4987798;28;20183;-74
2022/11/28 05:51:07;;;;;;;16.53;9.57;;;;;;;5.30;93.91;101473.41;4989123;28;20218;-73
2022/11/28 05:53:33;;;;;;;14.57;9.30;;;;;;;5.33;93.95;101462.53;4988452;28;20188;-73
2022/11/28 05:55:58;;;;;;;15.67;8.67;;;;;;;5.31;93.77;101462.47;4988582;28;20207;-73
2022/11/28 05:58:24;;;;;;;16.73;9.27;;;;;;;5.29;94.52;101463.22;4985741;28;20196;-72
2022/11/28 06:00:49;;;;;;;12.00;9.00;;;;;;;5.29;94.33;101465.75;4988861;28;20269;-73
2022/11/28 06:03:15;;;;;;;13.80;9.37;;;;;;;5.32;94.31;101450.66;4989401;28;20246;-73
2022/11/28 06:05:42;;;;;;;14.37;9.13;;;;;;;5.31;94.46;101423.53;4985369;28;20239;-72
2022/11/28 06:08:10;;;;;;;16.33;9.57;;;;;;;5.29;94.93;101423.44;4992369;28;20186;-73
2022/11/28 06:10:36;;;;;;;14.03;9.27;;;;;;;5.30;94.29;101425.19;4990242;28;20216;-72
2022/11/28 06:13:01;;;;;;;15.93;10.00;;;;;;;5.30;94.30;101419.25;4990217;28;20271;-73
2022/11/28 06:15:33;;;;;;;13.37;9.47;;;;;;;5.27;94.31;101417.44;4993894;28;20282;-73
2022/11/28 06:17:58;;;;;;;14.53;9.93;;;;;;;5.29;94.08;101413.28;4990398;28;20223;-74
2022/11/28 06:20:24;;;;;;;14.80;9.60;;;;;;;5.29;94.31;101400.59;4993029;28;20338;-73
2022/11/28 06:22:49;;;;;;;16.57;10.13;;;;;;;5.29;94.17;101399.75;4993603;28;20223;-73
2022/11/28 06:25:15;;;;;;;14.30;10.17;;;;;;;5.29;92.92;101405.66;4993546;28;20187;-73
2022/11/28 06:27:40;;;;;;;15.57;10.40;;;;;;;5.28;93.61;101401.41;4993140;28;20187;-73
2022/11/28 06:30:06;;;;;;;15.63;9.60;;;;;;;5.29;92.97;101402.28;4993824;28;20211;-73
2022/11/28 06:32:31;;;;;;;14.93;10.00;;;;;;;5.31;93.32;101399.03;4992717;28;20195;-73
2022/11/28 06:34:57;;;;;;;15.57;9.47;;;;;;;5.28;92.83;101396.31;4992331;28;20196;-73
2022/11/28 06:37:22;;;;;;;14.83;9.40;;;;;;;5.29;93.21;101407.34;4992196;28;20254;-73
2022/11/28 06:39:50;;;;;;;14.73;10.13;;;;;;;5.26;93.49;101412.28;4991913;28;20298;-73
2022/11/28 06:42:16;;;;;;;18.77;11.30;;;;;;;5.25;93.64;101413.06;4993326;28;20242;-73
2022/11/28 06:44:41;;;;;;;16.83;10.77;;;;;;;5.28;93.32;101415.75;4993231;28;20198;-73
2022/11/28 06:47:07;;;;;;;15.30;10.20;;;;;;;5.26;93.42;101414.81;4992223;28;20188;-73
2022/11/28 06:49:33;;;;;;;17.10;10.63;;;;;;;5.26;92.95;101413.16;4990851;28;20710;-73
2022/11/28 06:51:58;;;;;;;16.80;10.23;;;;;;;5.25;93.03;101408.84;4990284;28;20172;-73
2022/11/28 06:54:23;;;;;;;16.97;10.70;;;;;;;5.26;93.73;101409.72;4992824;28;20583;-73
2022/11/28 06:56:49;;;;;;;15.57;10.90;;;;;;;5.25;93.30;101402.91;4991849;28;20871;-72
2022/11/28 06:59:15;;;;;;;16.33;10.90;;;;;;;5.21;93.00;101401.88;4992932;28;20219;-72
2022/11/28 07:01:40;;;;;;;18.00;11.07;;;;;;;5.21;93.33;101408.63;4989207;28;20219;-73
2022/11/28 07:04:05;;;;;;;18.67;11.53;;;;;;;5.21;93.63;101406.09;4992869;28;20239;-73
2022/11/28 07:06:32;;;;;;;16.43;11.67;;;;;;;5.21;93.31;101413.72;4987539;28;20196;-73
2022/11/28 07:08:58;;;;;;;17.03;11.33;;;;;;;5.20;93.37;101417.06;4992559;28;20933;-73
2022/11/28 07:11:28;;;;;;;17.53;11.37;;;;;;;5.21;93.32;101413.72;4991728;28;20274;-73
2022/11/28 07:13:55;;;;;;;21.00;11.60;;;;;;;5.18;93.64;101401.75;4992711;28;20208;-72
2022/11/28 07:16:23;;;;;;;18.33;11.93;;;;;;;5.18;93.67;101399.22;4992477;28;20236;-74
2022/11/28 07:18:49;;;;;;;17.93;11.17;;;;;;;5.20;93.23;101401.81;4991353;28;20238;-73
2022/11/28 07:21:15;;;;;;;16.30;11.47;;;;;;;5.20;93.15;101405.22;4990956;28;20208;-73
2022/11/28 07:23:42;;;;;;;17.83;11.13;;;;;;;5.22;93.69;101412.91;4992598;28;20204;-73
2022/11/28 07:26:08;;;;;;;16.90;11.50;;;;;;;5.21;93.06;101406.94;4991112;28;20278;-73
2022/11/28 07:28:34;;;;;;;17.87;11.23;;;;;;;5.22;93.90;101413.78;4991472;28;20292;-73
2022/11/28 07:31:12;;;;;;;19.57;11.77;;;;;;;5.22;93.51;101411.25;4991652;28;20322;-73
2022/11/28 07:33:39;;;;;;;20.30;12.27;;;;;;;5.24;93.15;101418.91;4991506;28;20198;-72
2022/11/28 07:36:10;;;;;;;18.97;12.43;;;;;;;5.27;92.80;101422.50;4987917;28;20198;-73
2022/11/28 07:38:35;;;;;;;16.67;11.63;;;;;;;5.29;93.38;101420.91;4991434;28;20215;-73
2022/11/28 07:41:05;;;;;;;18.70;12.63;;;;;;;5.32;92.83;101410.91;4992818;28;20253;-73
2022/11/28 07:43:31;;;;;;;20.10;12.40;;;;;;;5.34;92.80;101416.91;4988605;28;20223;-73
2022/11/28 07:45:56;;;;;;;19.90;12.30;;;;;;;5.36;93.02;101419.53;4992432;28;20532;-73
2022/11/28 07:48:21;;;;;;;24.50;12.73;;;;;;;5.36;92.55;101425.50;4991555;28;20200;-73
2022/11/28 07:50:47;;;;;;;18.70;11.87;;;;;;;5.41;92.63;101421.50;4992093;28;20291;-73
2022/11/28 07:53:12;;;;;;;22.03;12.07;;;;;;;5.38;92.13;101423.91;4991350;28;20195;-73
2022/11/28 07:55:38;;;;;;;22.97;12.70;;;;;;;5.41;92.49;101426.59;4991946;28;20230;-73
2022/11/28 07:58:04;;;;;;;19.17;11.77;;;;;;;5.42;91.99;101425.78;4990617;28;20223;-73
2022/11/28 08:00:30;;;;;;;17.37;12.13;;;;;;;5.46;92.28;101425.16;4986637;28;20220;-73
2022/11/28 08:02:56;;;;;;;18.10;11.97;;;;;;;5.50;91.91;101419.44;4991808;28;20295;-73
2022/11/28 08:05:21;;;;;;;23.33;12.73;;;;;;;5.52;92.38;101414.44;4991835;28;20278;-73
2022/11/28 08:07:49;;;;;;;17.03;11.00;;;;;;;5.51;91.43;101425.34;4991782;28;20196;-73
2022/11/28 08:10:15;;;;;;;20.03;11.67;;;;;;;5.57;91.49;101418.06;4990667;28;20237;-73
2022/11/28 08:12:40;;;;;;;18.80;12.17;;;;;;;5.57;91.68;101424.00;4991725;28;20681;-74
2022/11/28 08:15:06;;;;;;;20.23;11.70;;;;;;;5.60;90.62;101411.44;4991640;28;20198;-73
2022/11/28 08:17:33;;;;;;;18.03;11.60;;;;;;;5.64;91.02;101409.91;4989631;28;20235;-73
2022/11/28 08:19:59;;;;;;;18.30;11.63;;;;;;;5.65;91.34;101415.06;4990748;28;20218;-73
2022/11/28 08:22:24;;;;;;;19.03;12.03;;;;;;;5.70;90.49;101418.69;4989282;28;20696;-73
2022/11/28 08:24:49;;;;;;;18.10;12.10;;;;;;;5.77;90.74;101424.94;4990637;28;20195;-73
2022/11/28 08:27:15;;;;;;;21.80;12.73;;;;;;;5.79;90.03;101423.34;4991197;28;20195;-73
2022/11/28 08:29:40;;;;;;;20.67;11.73;;;;;;;5.86;90.42;101441.56;4990941;28;20220;-73
2022/11/28 08:32:06;;;;;;;19.57;11.70;;;;;;;5.85;90.64;101438.94;4989587;28;20618;-73
2022/11/28 08:34:31;;;;;;;20.13;11.80;;;;;;;5.92;90.44;101434.19;4988782;28;20206;-73
2022/11/28 08:36:56;;;;;;;19.50;11.97;;;;;;;5.90;89.64;101437.47;4990834;28;20200;-72
2022/11/28 08:39:22;;;;;;;20.30;12.47;;;;;;;5.95;89.95;101439.41;4990167;28;20212;-73
2022/11/28 08:41:48;;;;;;;20.13;12.60;;;;;;;5.88;89.77;101439.06;4987967;28;20272;-73
2022/11/28 08:44:14;;;;;;;20.13;12.60;;;;;;;5.96;90.38;101440.28;4990717;28;20202;-74
2022/11/28 08:46:40;;;;;;;18.13;11.93;;;;;;;5.90;89.64;101450.19;4986007;28;20183;-73
2022/11/28 08:49:06;;;;;;;22.47;12.77;;;;;;;5.90;89.82;101450.19;4990757;28;20533;-73
2022/11/28 08:51:32;;;;;;;19.53;12.03;;;;;;;5.87;89.68;101458.53;4990835;28;20190;-73
2022/11/28 08:53:57;;;;;;;20.83;13.03;;;;;;;5.84;89.63;101458.38;4991158;28;20234;-73
2022/11/28 08:56:23;;;;;;;16.60;11.77;;;;;;;5.86;89.46;101459.34;4990758;28;20184;-72
2022/11/28 08:58:48;;;;;;;20.07;12.73;;;;;;;5.89;89.62;101464.53;4989899;28;20650;-73
2022/11/28 09:01:17;;;;;;;21.00;12.23;;;;;;;5.95;89.39;101466.50;4991877;28;20215;-72
2022/11/28 09:03:42;;;;;;;17.33;11.67;;;;;;;5.93;89.62;101463.91;4991078;28;20226;-73
2022/11/28 09:06:08;;;;;;;20.83;12.07;;;;;;;5.92;88.73;101464.69;4986204;28;20183;-73
2022/11/28 09:08:33;;;;;;;17.50;11.33;;;;;;;5.91;89.31;101460.44;4990554;28;20203;-72
2022/11/28 09:10:59;;;;;;;17.83;11.47;;;;;;;5.91;89.40;101468.03;4990722;28;20250;-73
2022/11/28 09:13:24;;;;;;;19.67;11.87;;;;;;;5.88;89.12;101464.47;4989724;28;20184;-72
2022/11/28 09:15:50;;;;;;;20.37;11.97;;;;;;;5.93;89.14;101463.91;4986102;28;20397;-72
2022/11/28 09:18:16;;;;;;;19.77;12.23;;;;;;;5.90;89.21;101468.81;4990609;28;20203;-73
2022/11/28 09:20:41;;;;;;;19.37;11.90;;;;;;;5.99;88.68;101461.63;4972445;28;20220;-74
2022/11/28 09:23:08;;;;;;;15.37;11.47;;;;;;;6.01;88.83;101456.63;4988636;28;20229;-73
2022/11/28 09:25:37;;;;;;;17.97;11.37;;;;;;;5.98;88.95;101457.34;4990508;28;20558;-73
2022/11/28 09:28:03;;;;;;;18.57;10.93;;;;;;;5.97;88.42;101449.66;4990426;28;20195;-72
2022/11/28 09:30:29;;;;;;;18.30;12.60;;;;;;;6.04;88.19;101457.63;4990652;28;20214;-72
2022/11/28 09:32:54;;;;;;;21.10;12.20;;;;;;;6.14;88.63;101456.41;4990882;28;20275;-73
2022/11/28 09:35:20;;;;;;;18.03;12.27;;;;;;;6.11;88.75;101461.34;4990481;28;20196;-73
2022/11/28 09:37:45;;;;;;;18.10;11.63;;;;;;;6.10;87.98;101460.47;4990689;28;20296;-74
2022/11/28 09:40:40;;;;;;;19.80;12.23;;;;;;;6.16;88.09;101452.25;4990549;28;20257;-72
2022/11/28 09:43:36;;;;;;;17.00;10.93;;;;;;;6.20;87.89;101456.69;4987657;28;20688;-73
2022/11/28 09:46:06;;;;;;;16.10;11.43;;;;;;;6.26;87.56;101446.81;4989998;28;20195;-73
2022/11/28 09:48:31;;;;;;;16.47;11.23;;;;;;;6.26;87.31;101454.44;4983071;28;20191;-73
2022/11/28 09:51:04;;;;;;;17.50;11.10;;;;;;;6.24;87.22;101453.50;4985823;28;20306;-72
2022/11/28 09:53:44;;;;;;;16.93;10.97;;;;;;;6.28;87.99;101460.47;4993176;28;20191;-72
2022/11/28 09:56:17;;;;;;;17.93;11.53;;;;;;;6.30;86.99;101458.84;5007140;28;20290;-73
2022/11/28 09:58:54;;;;;;;20.60;11.97;;;;;;;6.30;87.85;101464.81;4994489;28;20195;-73
2022/11/28 10:01:51;;;;;;;18.13;11.07;;;;;;;6.30;87.84;101451.22;4994454;28;20191;-73
2022/11/28 10:04:44;;;;;;;19.83;11.87;;;;;;;6.19;86.63;101448.22;4993750;28;20215;-72
2022/11/28 10:07:21;;;;;;;17.13;11.07;;;;;;;6.17;87.70;101451.47;5003233;28;20192;-73
2022/11/28 10:09:59;;;;;;;17.83;11.13;;;;;;;6.16;87.29;101448.06;4994181;28;20223;-73
2022/11/28 10:12:36;;;;;;;18.77;11.33;;;;;;;6.22;86.75;101444.94;4993616;28;20648;-73
2022/11/28 10:15:07;;;;;;;20.03;11.70;;;;;;;6.22;87.08;101458.50;4994075;28;20195;-73
2022/11/28 10:17:53;;;;;;;17.27;10.77;;;;;;;6.13;86.64;101454.66;4989884;28;20607;-73
2022/11/28 10:20:31;;;;;;;19.10;10.93;;;;;;;6.21;87.83;101456.75;4992393;28;20675;-73
2022/11/28 10:23:01;;;;;;;19.50;10.77;;;;;;;6.21;86.65;101456.75;4990983;28;20222;-72
2022/11/28 10:25:38;;;;;;;16.63;11.07;;;;;;;6.18;86.87;101450.66;4993472;28;20199;-72
2022/11/28 10:28:14;;;;;;;17.83;10.67;;;;;;;6.21;86.75;101448.28;4994162;28;20780;-74
2022/11/28 10:30:45;;;;;;;18.07;11.87;;;;;;;6.20;86.67;101451.59;4987375;28;20223;-74
2022/11/28 10:33:29;;;;;;;16.77;11.40;;;;;;;6.19;86.53;101458.38;4994014;28;20657;-73
2022/11/28 10:35:59;;;;;;;21.53;11.97;;;;;;;6.19;86.97;101449.88;5000948;28;20203;-73
2022/11/28 10:38:27;;;;;;;14.03;10.07;;;;;;;6.18;87.09;101448.97;4992266;28;20183;-73
2022/11/28 10:41:32;;;;;;;20.10;10.83;;;;;;;6.17;87.59;101443.84;4992431;28;20223;-72
2022/11/28 10:44:01;;;;;;;18.27;11.20;;;;;;;6.06;86.80;101445.00;4996515;28;20203;-73
2022/11/28 10:47:01;;;;;;;18.27;11.33;;;;;;;6.13;87.25;101444.50;4992714;28;20676;-74
2022/11/28 10:49:42;;;;;;;19.13;11.97;;;;;;;6.11;87.25;101441.00;4992320;28;20215;-73
2022/11/28 10:52:22;;;;;;;18.97;11.07;;;;;;;6.03;86.98;101438.09;4988909;28;20590;-72
2022/11/28 10:55:17;;;;;;;14.50;9.37;;;;;;;6.08;87.43;101440.88;4990874;28;20282;-73
2022/11/28 10:58:00;;;;;;;13.87;10.23;;;;;;;6.09;87.15;101437.53;5025249;28;20203;-73
2022/11/28 11:00:25;;;;;;;17.30;11.33;;;;;;;6.03;87.15;101438.09;4990789;28;20777;-73
2022/11/28 11:02:54;;;;;;;16.63;10.97;;;;;;;6.09;87.93;101432.44;4991867;28;20350;-73
2022/11/28 11:05:29;;;;;;;16.43;10.03;;;;;;;6.09;87.49;101429.91;4988739;28;20188;-73
2022/11/28 11:08:14;;;;;;;16.47;10.20;;;;;;;6.01;86.57;101426.13;4992696;28;20278;-73
2022/11/28 11:10:50;;;;;;;16.23;10.47;;;;;;;5.99;87.53;101428.59;4993138;28;20211;-73
2022/11/28 11:13:19;;;;;;;16.97;9.93;;;;;;;6.05;87.48;101436.53;4980865;28;20238;-73
2022/11/28 11:15:56;;;;;;;15.60;10.03;;;;;;;6.04;87.70;101437.31;4990275;28;20220;-73
2022/11/28 11:18:26;;;;;;;18.90;10.63;;;;;;;6.07;87.93;101440.00;4992676;28;20562;-73
2022/11/28 11:21:06;;;;;;;14.93;10.07;;;;;;;6.05;87.11;101441.59;4985483;28;20242;-74
2022/11/28 11:23:31;;;;;;;14.33;10.27;;;;;;;5.96;87.64;101438.63;4992725;28;20770;-74
2022/11/28 11:25:57;;;;;;;17.17;10.93;;;;;;;6.00;88.79;101440.53;4992679;28;20184;-74
2022/11/28 11:28:31;;;;;;;16.13;10.20;;;;;;;5.99;89.49;101431.13;4990224;28;20192;-73
2022/11/28 11:31:03;;;;;;;15.93;10.30;;;;;;;5.95;89.36;101430.94;4992221;28;20212;-73
2022/11/28 11:33:34;;;;;;;17.63;10.40;;;;;;;5.96;89.64;101422.50;4991972;28;20644;-73
2022/11/28 11:36:02;;;;;;;16.97;11.17;;;;;;;5.94;89.81;101424.13;4991963;28;20278;-74
2022/11/28 11:38:31;;;;;;;15.37;10.60;;;;;;;5.97;90.60;101424.25;4992770;28;20219;-74